• Join FlightAware (Why Join?)
  • Login
  • US Flag 
06:12AM EDT


 

Airport Tracker/Info


-or-


 

Live Flight TrackerFlight Track Log ✈ DAL6048 ✈ 19-Apr-2013 ✈ KMHT - KLGA

Flight Track Log - Related Links

Times and Time Zones

All times are in EDT time to prevent confusion due to time zone crossing. See the DAL6048 flight status page for this flight to view local times or setup timezone preferences in your user account.

Time Position Orientation Groundspeed Altitude Reporting Facility
EDT Latitude Longitude Course Direction KTS MPH feet Rate Location/Type
09:38AM 42.9167 -71.4333 196° South 148 170 900  Level KA90
09:39AM 42.8714 -71.4514 196° South 158 182 3,200 2,040 Climbing Boston Center
09:40AM 42.8656 -71.5167 263° West 157 181 5,400 2,160 Climbing Boston Center
09:41AM 42.8664 -71.6072 271° West 204 235 7,600 2,040 Climbing Boston Center
09:42AM 42.9083 -71.6806 308° West 256 295 9,600 1,980 Climbing Boston Center
09:43AM 42.8736 -71.7686 242° Southwest 228 262 11,600 1,800 Climbing Boston Center
09:44AM 42.8322 -71.8400 232° Southwest 258 297 13,200 1,740 Climbing Boston Center
09:45AM 42.7806 -71.9308 232° Southwest 278 320 15,100 1,320 Climbing Boston Center
09:46AM 42.7350 -72.0133 233° Southwest 288 331 16,000 420 Climbing Boston Center
09:47AM 42.6731 -72.1181 231° Southwest 313 360 16,000  Level Boston Center
09:48AM 42.6211 -72.2117 233° Southwest 344 396 16,000 -60 Level Boston Center
09:49AM 42.5672 -72.3469 242° Southwest 336 387 15,900  Descending Boston Center
09:50AM 42.5506 -72.4569 258° West 317 365 16,000  Climbing Boston Center
09:51AM 42.5358 -72.5642 259° West 299 344 16,000  Level Boston Center
09:52AM 42.5189 -72.6711 258° West 294 338 16,000  Level Boston Center
09:53AM 42.5019 -72.7808 258° West 300 345 16,000  Level Boston Center
09:54AM 42.4869 -72.8792 258° West 300 345 16,000  Level Boston Center
09:55AM 42.4700 -73.0003 259° West 300 345 16,000  Level Boston Center
09:56AM 42.4525 -73.1097 258° West 305 351 16,000  Level Boston Center
09:57AM 42.4106 -73.1853 233° Southwest 285 328 16,000 -120 Level Boston Center
09:58AM 42.3497 -73.2350 211° Southwest 285 328 15,800 -720 Descending Boston Center
09:59AM 42.2681 -73.2903 207° Southwest 280 322 14,600 -900 Descending Boston Center
10:00AM 42.2008 -73.3397 209° Southwest 291 335 14,000 -360 Descending Boston Center
10:01AM 42.1256 -73.3975 210° Southwest 298 343 13,900  Descending Boston Center
10:02AM 42.0417 -73.4550 207° Southwest 308 354 14,000 -240 Climbing Boston Center
10:03AM 41.9744 -73.5042 209° Southwest 313 360 13,500 -900 Descending Boston Center
10:04AM 41.8967 -73.5586 208° Southwest 303 349 12,200 -1,260 Descending Boston Center
10:05AM 41.8400 -73.5992 208° Southwest 274 315 11,000 -1,500 Descending Boston Center
10:06AM 41.7750 -73.6453 208° Southwest 254 292 9,200 -1,020 Descending Boston Center
10:07AM 41.7267 -73.6778 207° Southwest 232 267 9,000 -120 Descending Boston Center
10:08AM 41.6658 -73.7211 208° Southwest 226 260 9,000  Level Boston Center
10:09AM 41.6167 -73.7500 204° Southwest 225 259 9,000  Level New York TRACON
10:10AM 41.5667 -73.8000 217° Southwest 213 245 9,000  Level New York TRACON
10:11AM 41.5000 -73.8333 201° Southwest 227 261 9,000 -600 Level New York TRACON
10:12AM 41.4500 -73.8667 207° Southwest 224 258 7,800 -1,440 Descending New York TRACON
10:13AM 41.3833 -73.8333 159° South 243 280 6,200 -1,440 Descending New York TRACON
10:14AM 41.3333 -73.7833 143° Southeast 239 275 5,000 -600 Descending New York TRACON
10:15AM 41.2833 -73.7333 143° Southeast 241 277 5,000 -60 Level New York TRACON
10:16AM 41.2333 -73.7000 153° Southeast 239 275 4,900 -540 Descending New York TRACON
10:17AM 41.1667 -73.6833 169° South 215 247 4,000 -480 Descending New York TRACON
10:18AM 41.1167 -73.6500 153° Southeast 219 252 4,000  Level New York TRACON
10:19AM 41.0667 -73.6500 180° South 213 245 4,000 -180 Level New York TRACON
10:20AM 41.0167 -73.6833 207° Southwest 209 241 3,700 -540 Descending New York TRACON
10:21AM 40.9667 -73.7167 207° Southwest 193 222 3,000 -360 Descending New York TRACON
10:22AM 40.9167 -73.7500 207° Southwest 175 201 3,000 -360 Level New York TRACON
10:23AM 40.8833 -73.7833 217° Southwest 166 191 2,400 -780 Descending New York TRACON
10:24AM 40.8500 -73.8167 217° Southwest 137 158 1,500 -780 Descending New York TRACON
10:25AM 40.8167 -73.8500 217° Southwest 131 151 800 -720 Descending New York TRACON